createdAt,value
2018-06-09T00:01:06.118Z,85.44
2018-06-09T00:03:34.281Z,85.84
2018-06-09T00:06:02.473Z,85.95
2018-06-09T00:08:33.527Z,86.15
2018-06-09T00:11:02.064Z,86.02
2018-06-09T00:13:30.222Z,86.33
2018-06-09T00:15:59.267Z,86.62
2018-06-09T00:18:27.418Z,86.19
2018-06-09T00:20:55.562Z,86.34
2018-06-09T00:23:23.689Z,86.27
2018-06-09T00:25:51.861Z,86.89
2018-06-09T00:28:19.993Z,86.76
2018-06-09T00:30:48.170Z,86.04
2018-06-09T00:33:16.279Z,85.82
2018-06-09T00:35:44.805Z,85.08
2018-06-09T00:38:14.863Z,85.35
2018-06-09T00:40:43.122Z,85.85
2018-06-09T00:43:11.362Z,86.42
2018-06-09T00:45:39.536Z,86.39
2018-06-09T00:48:07.892Z,86.49
2018-06-09T00:50:36.055Z,86.63
2018-06-09T00:53:10.923Z,86.60
2018-06-09T00:55:39.126Z,86.73
2018-06-09T00:58:07.272Z,87.58
2018-06-09T01:00:35.458Z,87.94
2018-06-09T01:03:03.678Z,88.58
2018-06-09T01:05:31.875Z,88.05
2018-06-09T01:08:00.923Z,87.88
2018-06-09T01:10:28.998Z,87.79
2018-06-09T01:12:57.097Z,88.09
2018-06-09T01:15:25.283Z,88.50
2018-06-09T01:17:53.376Z,88.98
2018-06-09T01:20:21.479Z,88.59
2018-06-09T01:22:49.561Z,88.89
2018-06-09T01:25:17.635Z,89.12
2018-06-09T01:27:45.740Z,89.13
2018-06-09T01:30:13.843Z,88.94
2018-06-09T01:32:41.940Z,89.45
2018-06-09T01:35:10.012Z,89.47
2018-06-09T01:37:39.076Z,90.29
2018-06-09T01:40:07.148Z,89.85
2018-06-09T01:42:35.233Z,90.37
2018-06-09T01:45:03.304Z,90.38
2018-06-09T01:47:32.150Z,90.44
2018-06-09T01:50:00.592Z,90.47
2018-06-09T01:52:28.650Z,90.58
2018-06-09T01:54:56.845Z,90.61
2018-06-09T01:57:24.932Z,90.44
2018-06-09T01:59:53.029Z,91.14
2018-06-09T02:02:21.108Z,90.76
2018-06-09T02:04:49.201Z,91.34
2018-06-09T02:07:17.269Z,91.22
2018-06-09T02:09:45.396Z,91.11
2018-06-09T02:12:13.483Z,91.66
2018-06-09T02:14:41.571Z,91.95
2018-06-09T02:17:09.652Z,91.89
2018-06-09T02:19:38.284Z,92.09
2018-06-09T02:22:06.371Z,92.34
2018-06-09T02:24:34.505Z,92.08
2018-06-09T02:27:02.804Z,92.76
2018-06-09T02:29:30.927Z,92.57
2018-06-09T02:31:59.020Z,92.64
2018-06-09T02:34:27.127Z,92.94
2018-06-09T02:36:55.614Z,92.38
2018-06-09T02:39:23.810Z,92.93
2018-06-09T02:41:51.902Z,92.69
2018-06-09T02:44:25.511Z,93.03
2018-06-09T02:46:53.604Z,93.11
2018-06-09T02:49:21.739Z,93.32
2018-06-09T02:51:49.807Z,93.70
2018-06-09T02:54:17.885Z,93.43
2018-06-09T02:56:45.988Z,93.88
2018-06-09T02:59:14.081Z,93.69
2018-06-09T03:01:42.134Z,93.48
2018-06-09T03:04:10.217Z,93.69
2018-06-09T03:06:38.358Z,93.71
2018-06-09T03:09:12.668Z,93.51
2018-06-09T03:11:40.778Z,93.42
2018-06-09T03:14:08.876Z,94.18
2018-06-09T03:16:36.956Z,94.17
2018-06-09T03:19:05.073Z,93.96
2018-06-09T03:21:33.249Z,94.32
2018-06-09T03:24:01.481Z,94.25
2018-06-09T03:26:29.564Z,94.33
2018-06-09T03:28:57.627Z,93.75
2018-06-09T03:31:25.709Z,93.88
2018-06-09T03:33:53.793Z,93.60
2018-06-09T03:36:21.951Z,93.39
2018-06-09T03:38:50.012Z,93.19
2018-06-09T03:41:21.814Z,93.37
2018-06-09T03:43:50.695Z,92.96
2018-06-09T03:46:18.773Z,93.56
2018-06-09T03:48:46.868Z,93.55
2018-06-09T03:51:14.916Z,92.79
2018-06-09T03:53:43.024Z,92.45
2018-06-09T03:56:11.116Z,92.01
2018-06-09T03:58:39.250Z,91.23
2018-06-09T04:01:07.340Z,90.55
2018-06-09T04:03:35.422Z,90.31
2018-06-09T04:06:03.747Z,90.37
2018-06-09T04:08:31.832Z,90.13
2018-06-09T04:10:59.916Z,90.07
2018-06-09T04:13:28.143Z,90.69
2018-06-09T04:15:56.234Z,90.49
2018-06-09T04:18:24.297Z,90.05
2018-06-09T04:20:52.817Z,89.80
2018-06-09T04:23:20.880Z,86.38
2018-06-09T04:25:49.260Z,82.16
2018-06-09T04:28:17.377Z,79.67
2018-06-09T04:30:45.434Z,78.08
2018-06-09T04:33:13.580Z,75.36
2018-06-09T04:35:41.661Z,73.17
2018-06-09T04:38:09.741Z,71.48
2018-06-09T04:40:37.811Z,71.35
2018-06-09T04:43:06.860Z,70.47
2018-06-09T04:45:35.085Z,70.44
2018-06-09T04:48:03.176Z,68.60
2018-06-09T04:50:31.295Z,68.43
2018-06-09T04:52:59.898Z,66.73
2018-06-09T04:55:27.996Z,66.55
2018-06-09T04:57:56.208Z,65.43
2018-06-09T05:00:24.588Z,66.29
2018-06-09T05:02:52.828Z,67.36
2018-06-09T05:05:20.979Z,67.92
2018-06-09T05:07:50.131Z,67.70
2018-06-09T05:10:18.221Z,65.09
2018-06-09T05:12:46.315Z,66.94
2018-06-09T05:15:14.507Z,64.80
2018-06-09T05:17:42.916Z,61.79
2018-06-09T05:20:10.987Z,63.41
2018-06-09T05:22:39.076Z,65.88
2018-06-09T05:25:07.871Z,70.61
2018-06-09T05:27:36.199Z,70.98
2018-06-09T05:30:04.495Z,73.15
2018-06-09T05:32:32.576Z,74.89
2018-06-09T05:35:00.648Z,73.51
2018-06-09T05:37:28.735Z,67.58
2018-06-09T05:39:57.149Z,61.47
2018-06-09T05:42:25.260Z,58.30
2018-06-09T05:44:53.332Z,55.72
2018-06-09T05:47:21.739Z,55.65
2018-06-09T05:49:49.815Z,57.30
2018-06-09T05:52:19.932Z,57.65
2018-06-09T05:54:48.001Z,58.74
2018-06-09T05:57:16.172Z,56.26
2018-06-09T05:59:44.285Z,54.23
2018-06-09T06:02:12.344Z,53.23
2018-06-09T06:04:40.436Z,54.07
2018-06-09T06:07:09.147Z,51.54
2018-06-09T06:09:37.238Z,50.51
2018-06-09T06:12:05.408Z,51.35
2018-06-09T06:14:33.488Z,52.69
2018-06-09T06:17:01.616Z,53.22
2018-06-09T06:19:29.718Z,52.26
2018-06-09T06:21:57.799Z,49.42
2018-06-09T06:24:25.893Z,50.54
2018-06-09T06:26:53.968Z,51.96
2018-06-09T06:29:22.084Z,55.66
2018-06-09T06:31:50.248Z,56.76
2018-06-09T06:34:18.237Z,55.69
2018-06-09T06:36:46.312Z,57.48
2018-06-09T06:39:14.408Z,55.05
2018-06-09T06:41:42.493Z,55.67
2018-06-09T06:44:10.993Z,58.32
2018-06-09T06:46:39.205Z,59.65
2018-06-09T06:49:07.305Z,61.99
2018-06-09T06:51:35.404Z,63.75
2018-06-09T06:54:03.832Z,64.71
2018-06-09T06:56:31.924Z,66.06
2018-06-09T06:59:00.025Z,66.47
2018-06-09T07:01:28.173Z,63.78
2018-06-09T07:03:56.276Z,65.88
2018-06-09T07:06:24.356Z,65.13
2018-06-09T07:08:52.520Z,64.09
2018-06-09T07:11:20.841Z,64.44
2018-06-09T07:13:49.053Z,64.54
2018-06-09T07:16:17.689Z,64.45
2018-06-09T07:18:45.903Z,67.85
2018-06-09T07:21:13.981Z,66.54
2018-06-09T07:23:42.073Z,65.48
2018-06-09T07:26:11.192Z,66.82
2018-06-09T07:28:39.276Z,65.88
2018-06-09T07:31:07.703Z,66.24
2018-06-09T07:33:36.840Z,66.44
2018-06-09T07:36:05.008Z,68.43
2018-06-09T07:38:34.144Z,68.91
2018-06-09T07:41:02.247Z,66.54
2018-06-09T07:43:30.341Z,65.91
2018-06-09T07:45:58.428Z,65.96
2018-06-09T07:48:26.567Z,65.59
2018-06-09T07:50:54.733Z,65.13
2018-06-09T07:53:22.876Z,65.52
2018-06-09T07:55:51.473Z,63.98
2018-06-09T07:58:19.632Z,63.97
2018-06-09T08:00:47.753Z,64.24
2018-06-09T08:03:15.831Z,65.54
2018-06-09T08:05:43.920Z,66.45
2018-06-09T08:08:12.080Z,65.02
2018-06-09T08:10:40.458Z,64.28
2018-06-09T08:13:10.832Z,64.13
2018-06-09T08:15:40.536Z,63.53
2018-06-09T08:18:08.750Z,62.92
2018-06-09T08:20:37.576Z,64.66
2018-06-09T08:23:05.679Z,62.46
2018-06-09T08:25:40.593Z,64.18
2018-06-09T08:28:15.004Z,65.45
2018-06-09T08:30:53.821Z,62.38
2018-06-09T08:33:22.907Z,63.92
2018-06-09T08:35:51.043Z,62.69
2018-06-09T08:38:19.148Z,62.91
2018-06-09T08:40:47.318Z,64.57
2018-06-09T08:43:15.694Z,62.51
2018-06-09T08:45:44.528Z,64.03
2018-06-09T08:48:12.614Z,65.47
2018-06-09T08:50:40.695Z,63.72
2018-06-09T08:53:08.781Z,63.22
2018-06-09T08:55:36.875Z,63.42
2018-06-09T08:58:04.961Z,61.21
2018-06-09T09:00:33.407Z,62.07
2018-06-09T09:03:01.560Z,58.95
2018-06-09T09:05:29.889Z,61.67
2018-06-09T09:07:58.569Z,60.96
2018-06-09T09:10:26.704Z,61.26
2018-06-09T09:12:55.047Z,63.21
2018-06-09T09:15:23.262Z,60.62
2018-06-09T09:17:51.531Z,60.87
2018-06-09T09:20:20.431Z,61.93
2018-06-09T09:22:49.435Z,61.70
2018-06-09T09:25:20.640Z,59.46
2018-06-09T09:27:49.016Z,59.63
2018-06-09T09:30:17.158Z,61.01
2018-06-09T09:32:46.420Z,59.50
2018-06-09T09:35:14.704Z,59.41
2018-06-09T09:37:42.933Z,59.58
2018-06-09T09:40:11.289Z,62.13
2018-06-09T09:42:41.642Z,60.47
2018-06-09T09:45:09.892Z,61.44
2018-06-09T09:47:38.214Z,61.02
2018-06-09T09:50:06.479Z,61.72
2018-06-09T09:52:34.737Z,60.13
2018-06-09T09:55:03.008Z,61.43
2018-06-09T09:57:35.772Z,60.34
2018-06-09T10:00:03.888Z,59.97
2018-06-09T10:02:32.061Z,61.35
2018-06-09T10:05:00.253Z,59.24
2018-06-09T10:07:28.497Z,57.89
2018-06-09T10:09:56.869Z,59.86
2018-06-09T10:12:25.270Z,59.96
2018-06-09T10:14:53.640Z,60.11
2018-06-09T10:17:38.472Z,60.22
2018-06-09T10:20:18.945Z,60.46
2018-06-09T10:22:57.323Z,60.68
2018-06-09T10:25:32.235Z,61.43
2018-06-09T10:28:00.487Z,61.40
2018-06-09T10:30:29.234Z,60.95
2018-06-09T10:32:57.579Z,60.93
2018-06-09T10:35:25.802Z,60.66
2018-06-09T10:37:54.021Z,62.20
2018-06-09T10:40:47.303Z,61.67
2018-06-09T10:43:26.432Z,60.84
2018-06-09T10:45:55.450Z,58.48
2018-06-09T10:48:23.649Z,58.45
2018-06-09T10:50:51.956Z,58.81
2018-06-09T10:53:45.862Z,60.80
2018-06-09T10:56:25.604Z,58.75
2018-06-09T10:58:53.937Z,60.50
2018-06-09T11:01:22.801Z,60.79
2018-06-09T11:03:51.641Z,59.97
2018-06-09T11:06:20.728Z,58.91
2018-06-09T11:08:49.364Z,57.94
2018-06-09T11:11:17.516Z,57.19
2018-06-09T11:13:45.628Z,56.73
2018-06-09T11:16:14.248Z,55.55
2018-06-09T11:18:42.427Z,55.56
2018-06-09T11:21:10.664Z,56.73
2018-06-09T11:23:39.164Z,59.23
2018-06-09T11:26:08.080Z,57.43
2018-06-09T11:28:36.297Z,55.53
2018-06-09T11:31:04.629Z,54.54
2018-06-09T11:33:32.944Z,55.51
2018-06-09T11:36:01.340Z,57.37
2018-06-09T11:38:29.487Z,57.88
2018-06-09T11:40:58.110Z,58.42
2018-06-09T11:43:26.476Z,60.19
2018-06-09T11:45:54.712Z,58.27
2018-06-09T11:48:23.011Z,57.06
2018-06-09T11:50:51.257Z,55.06
2018-06-09T11:53:19.635Z,54.60
2018-06-09T11:55:48.012Z,54.16
2018-06-09T11:58:16.299Z,58.21
2018-06-09T12:00:44.615Z,53.90
2018-06-09T12:03:12.847Z,53.34
2018-06-09T12:05:41.097Z,53.42
2018-06-09T12:08:09.404Z,53.01
2018-06-09T12:10:37.541Z,55.22
2018-06-09T12:13:05.907Z,51.73
2018-06-09T12:15:34.029Z,55.73
2018-06-09T12:18:02.297Z,54.54
2018-06-09T12:20:30.705Z,51.53
2018-06-09T12:22:59.135Z,51.62
2018-06-09T12:25:27.236Z,54.12
2018-06-09T12:27:55.425Z,52.71
2018-06-09T12:30:24.132Z,53.75
2018-06-09T12:32:52.529Z,57.14
2018-06-09T12:35:21.112Z,56.28
2018-06-09T12:37:49.981Z,55.66
2018-06-09T12:40:18.230Z,54.92
2018-06-09T12:42:46.533Z,56.98
2018-06-09T12:45:14.867Z,56.37
2018-06-09T12:47:43.258Z,55.87
2018-06-09T12:50:12.488Z,56.44
2018-06-09T12:52:41.371Z,56.11
2018-06-09T12:55:09.777Z,56.34
2018-06-09T12:57:37.961Z,56.74
2018-06-09T13:00:06.114Z,55.83
2018-06-09T13:02:34.261Z,57.25
2018-06-09T13:05:02.492Z,57.97
2018-06-09T13:07:30.876Z,58.50
2018-06-09T13:09:59.290Z,57.67
2018-06-09T13:12:27.560Z,56.82
2018-06-09T13:14:56.296Z,57.67
2018-06-09T13:17:24.666Z,57.17
2018-06-09T13:19:53.047Z,57.49
2018-06-09T13:22:21.232Z,57.51
2018-06-09T13:24:49.505Z,55.68
2018-06-09T13:27:17.932Z,56.22
2018-06-09T13:29:46.488Z,57.20
2018-06-09T13:32:14.852Z,56.45
2018-06-09T13:34:43.205Z,57.94
2018-06-09T13:37:11.357Z,57.17
2018-06-09T13:39:39.695Z,56.83
2018-06-09T13:42:08.088Z,56.31
2018-06-09T13:44:36.461Z,55.15
2018-06-09T13:47:04.732Z,58.38
2018-06-09T13:49:33.118Z,57.18
2018-06-09T13:52:01.356Z,55.29
2018-06-09T13:54:29.585Z,55.94
2018-06-09T13:56:58.356Z,56.17
2018-06-09T13:59:26.727Z,57.41
2018-06-09T14:01:54.827Z,57.53
2018-06-09T14:04:23.056Z,58.25
2018-06-09T14:06:51.428Z,57.96
2018-06-09T14:09:19.518Z,59.31
2018-06-09T14:11:47.648Z,59.56
2018-06-09T14:14:15.937Z,59.97
2018-06-09T14:16:44.043Z,60.21
2018-06-09T14:19:13.360Z,61.15
2018-06-09T14:21:41.471Z,62.15
2018-06-09T14:24:09.699Z,63.16
2018-06-09T14:26:37.821Z,63.78
2018-06-09T14:29:06.233Z,65.35
2018-06-09T14:31:34.461Z,64.31
2018-06-09T14:34:02.822Z,64.31
2018-06-09T14:36:31.117Z,63.86
2018-06-09T14:38:59.608Z,64.05
2018-06-09T14:41:27.944Z,63.66
2018-06-09T14:43:56.488Z,64.30
2018-06-09T14:46:24.975Z,64.70
2018-06-09T14:48:53.356Z,65.22
2018-06-09T14:51:21.589Z,63.76
2018-06-09T14:53:50.071Z,65.39
2018-06-09T14:56:18.160Z,64.04
2018-06-09T14:58:46.514Z,65.98
2018-06-09T15:01:14.638Z,66.12
2018-06-09T15:03:43.069Z,64.79
2018-06-09T15:06:11.440Z,64.35
2018-06-09T15:08:39.823Z,63.54
2018-06-09T15:11:08.049Z,63.18
2018-06-09T15:13:36.162Z,63.49
2018-06-09T15:16:04.297Z,63.71
2018-06-09T15:18:32.604Z,63.90
2018-06-09T15:21:00.824Z,63.67
2018-06-09T15:23:29.260Z,63.75
2018-06-09T15:25:57.567Z,63.27
2018-06-09T15:28:25.849Z,62.46
2018-06-09T15:30:54.078Z,62.73
2018-06-09T15:33:22.448Z,58.53
2018-06-09T15:35:50.676Z,61.83
2018-06-09T15:38:19.036Z,58.38
2018-06-09T15:40:47.176Z,58.93
2018-06-09T15:43:15.457Z,55.05
2018-06-09T15:45:43.700Z,58.41
2018-06-09T15:48:11.983Z,54.75
2018-06-09T15:50:40.439Z,55.69
2018-06-09T15:53:08.588Z,54.56
2018-06-09T15:55:37.567Z,55.64
2018-06-09T15:58:05.714Z,57.12
2018-06-09T16:00:34.114Z,54.95
2018-06-09T16:03:02.936Z,57.21
2018-06-09T16:05:32.097Z,56.95
2018-06-09T16:08:00.478Z,58.36
2018-06-09T16:10:28.810Z,58.02
2018-06-09T16:12:57.198Z,59.21
2018-06-09T16:15:26.393Z,58.06
2018-06-09T16:17:54.723Z,58.71
2018-06-09T16:20:22.866Z,60.04
2018-06-09T16:22:51.214Z,60.34
2018-06-09T16:25:19.352Z,61.61
2018-06-09T16:27:47.679Z,61.55
2018-06-09T16:30:15.921Z,61.70
2018-06-09T16:32:44.099Z,60.85
2018-06-09T16:35:12.292Z,61.33
2018-06-09T16:37:40.864Z,61.87
2018-06-09T16:40:09.209Z,62.18
2018-06-09T16:42:37.351Z,62.59
2018-06-09T16:45:05.660Z,64.10
2018-06-09T16:47:33.956Z,67.47
2018-06-09T16:50:03.364Z,70.76
2018-06-09T16:52:31.619Z,70.67
2018-06-09T16:54:59.934Z,66.77
2018-06-09T16:57:28.180Z,65.25
2018-06-09T16:59:56.707Z,66.59
2018-06-09T17:02:25.036Z,68.39
2018-06-09T17:04:53.408Z,70.37
2018-06-09T17:07:21.804Z,75.39
2018-06-09T17:09:50.070Z,76.65
2018-06-09T17:12:19.047Z,75.13
2018-06-09T17:14:47.609Z,74.26
2018-06-09T17:17:16.545Z,75.50
2018-06-09T17:22:31.065Z,74.46
2018-06-09T17:24:59.177Z,74.21
2018-06-09T17:30:20.148Z,75.89
2018-06-09T17:32:48.591Z,76.21
2018-06-09T17:35:16.753Z,76.50
2018-06-09T17:37:45.072Z,76.43
2018-06-09T17:40:13.434Z,77.65
2018-06-09T17:42:41.667Z,76.70
2018-06-09T17:45:09.886Z,74.97
2018-06-09T17:47:38.032Z,75.59
2018-06-09T17:50:06.231Z,74.22
2018-06-09T17:52:35.033Z,74.71
2018-06-09T17:55:03.784Z,75.63
2018-06-09T17:57:32.189Z,75.79
2018-06-09T18:00:03.352Z,73.30
2018-06-09T18:02:31.484Z,73.59
2018-06-09T18:04:59.704Z,72.70
2018-06-09T18:07:30.724Z,71.98
2018-06-09T18:09:58.901Z,71.43
2018-06-09T18:12:27.279Z,70.64
2018-06-09T18:14:55.469Z,71.00
2018-06-09T18:17:23.826Z,70.99
2018-06-09T18:19:52.268Z,72.43
2018-06-09T18:22:20.432Z,72.72
2018-06-09T18:24:48.700Z,73.25
2018-06-09T18:27:17.013Z,72.55
2018-06-09T18:29:45.322Z,72.51
2018-06-09T18:32:13.703Z,73.65
2018-06-09T18:34:42.460Z,75.50
2018-06-09T18:50:26.057Z,83.04
2018-06-09T18:52:54.310Z,80.86
2018-06-09T18:55:22.767Z,81.58
2018-06-09T18:57:51.011Z,79.29
2018-06-09T19:00:19.100Z,77.28
2018-06-09T19:02:47.711Z,74.99
2018-06-09T19:05:15.886Z,74.29
2018-06-09T19:07:44.093Z,72.58
2018-06-09T19:10:12.229Z,71.95
2018-06-09T19:12:40.345Z,71.99
2018-06-09T19:15:08.456Z,72.47
2018-06-09T19:17:36.931Z,72.45
2018-06-09T19:20:05.108Z,71.75
2018-06-09T19:22:33.197Z,72.43
2018-06-09T19:25:01.419Z,72.33
2018-06-09T19:27:29.522Z,72.86
2018-06-09T19:29:57.736Z,72.82
2018-06-09T19:32:26.166Z,73.25
2018-06-09T19:34:59.259Z,73.65
2018-06-09T19:37:27.436Z,73.39
2018-06-09T19:39:55.585Z,73.95
2018-06-09T19:42:23.685Z,73.34
2018-06-09T19:44:51.797Z,74.71
2018-06-09T19:47:20.289Z,75.46
2018-06-09T19:49:48.384Z,75.87
2018-06-09T19:52:16.531Z,75.62
2018-06-09T19:54:50.491Z,75.15
2018-06-09T19:57:18.580Z,75.59
2018-06-09T19:59:46.825Z,75.95
2018-06-09T20:02:15.465Z,76.80
2018-06-09T20:04:44.027Z,76.99
2018-06-09T20:07:12.370Z,77.07
2018-06-09T20:09:40.488Z,77.35
2018-06-09T20:12:09.409Z,77.91
2018-06-09T20:14:37.784Z,77.75
2018-06-09T20:17:06.164Z,78.62
2018-06-09T20:19:34.554Z,78.98
2018-06-09T20:22:02.768Z,79.28
2018-06-09T20:24:30.873Z,79.16
2018-06-09T20:26:59.001Z,79.30
2018-06-09T20:29:27.175Z,79.27
2018-06-09T20:32:07.788Z,79.24
2018-06-09T20:34:35.880Z,79.79
2018-06-09T20:37:03.972Z,80.29
2018-06-09T20:39:32.468Z,81.14
2018-06-09T20:45:03.911Z,81.44
2018-06-09T21:11:58.126Z,83.48
2018-06-09T21:14:26.793Z,82.95
2018-06-09T21:16:55.343Z,82.79
2018-06-09T21:19:24.431Z,83.21
2018-06-09T21:24:45.460Z,84.20
2018-06-09T21:27:18.833Z,84.36
2018-06-09T21:29:55.137Z,84.39
2018-06-09T21:32:27.867Z,84.46
2018-06-09T21:35:11.393Z,85.07
2018-06-09T21:37:47.249Z,84.86
2018-06-09T21:40:24.029Z,84.51
2018-06-09T21:42:57.720Z,84.91
2018-06-09T21:45:56.268Z,84.70
2018-06-09T21:48:24.440Z,85.41
2018-06-09T21:50:52.532Z,84.77
2018-06-09T21:53:20.656Z,85.28
2018-06-09T21:55:49.107Z,84.90
2018-06-09T21:58:17.212Z,85.88
